sensor_id;sensor_type;location;lat;lon;timestamp;temperature;humidity
56761;DHT22;42633;44.494;11.356;2023-02-07T00:01:40;3.10;98.10
56761;DHT22;42633;44.494;11.356;2023-02-07T00:04:44;3.10;98.30
56761;DHT22;42633;44.494;11.356;2023-02-07T00:07:48;3.10;98.60
56761;DHT22;42633;44.494;11.356;2023-02-07T00:10:52;3.10;98.50
56761;DHT22;42633;44.494;11.356;2023-02-07T00:13:57;3.20;98.70
56761;DHT22;42633;44.494;11.356;2023-02-07T00:17:01;3.20;98.80
56761;DHT22;42633;44.494;11.356;2023-02-07T00:20:06;3.10;98.80
56761;DHT22;42633;44.494;11.356;2023-02-07T00:23:10;3.10;98.90
56761;DHT22;42633;44.494;11.356;2023-02-07T00:26:15;3.10;98.70
56761;DHT22;42633;44.494;11.356;2023-02-07T00:29:21;3.00;98.80
56761;DHT22;42633;44.494;11.356;2023-02-07T00:32:30;2.90;99.30
56761;DHT22;42633;44.494;11.356;2023-02-07T00:35:34;2.90;99.60
56761;DHT22;42633;44.494;11.356;2023-02-07T00:38:38;2.90;99.70
56761;DHT22;42633;44.494;11.356;2023-02-07T00:41:46;2.90;99.70
56761;DHT22;42633;44.494;11.356;2023-02-07T00:44:50;2.80;99.90
56761;DHT22;42633;44.494;11.356;2023-02-07T00:47:54;3.00;99.90
56761;DHT22;42633;44.494;11.356;2023-02-07T00:50:59;3.00;99.80
56761;DHT22;42633;44.494;11.356;2023-02-07T00:54:04;3.10;99.80
56761;DHT22;42633;44.494;11.356;2023-02-07T00:57:07;3.20;99.70
56761;DHT22;42633;44.494;11.356;2023-02-07T01:00:12;3.30;99.70
56761;DHT22;42633;44.494;11.356;2023-02-07T01:03:16;3.40;99.40
56761;DHT22;42633;44.494;11.356;2023-02-07T01:06:21;3.50;98.80
56761;DHT22;42633;44.494;11.356;2023-02-07T01:09:26;3.50;98.70
56761;DHT22;42633;44.494;11.356;2023-02-07T01:12:33;3.40;98.10
56761;DHT22;42633;44.494;11.356;2023-02-07T01:15:43;3.40;98.40
56761;DHT22;42633;44.494;11.356;2023-02-07T01:18:48;3.40;98.60
56761;DHT22;42633;44.494;11.356;2023-02-07T01:21:53;3.40;97.60
56761;DHT22;42633;44.494;11.356;2023-02-07T01:25:01;3.30;98.20
56761;DHT22;42633;44.494;11.356;2023-02-07T01:28:06;3.20;97.90
56761;DHT22;42633;44.494;11.356;2023-02-07T01:31:14;3.00;98.00
56761;DHT22;42633;44.494;11.356;2023-02-07T01:34:18;2.90;98.50
56761;DHT22;42633;44.494;11.356;2023-02-07T01:37:24;3.00;98.60
56761;DHT22;42633;44.494;11.356;2023-02-07T01:40:29;3.00;98.70
56761;DHT22;42633;44.494;11.356;2023-02-07T01:43:33;2.90;98.70
56761;DHT22;42633;44.494;11.356;2023-02-07T01:46:39;2.90;98.70
56761;DHT22;42633;44.494;11.356;2023-02-07T01:49:45;2.90;98.50
56761;DHT22;42633;44.494;11.356;2023-02-07T01:52:52;2.90;98.50
56761;DHT22;42633;44.494;11.356;2023-02-07T01:55:59;3.00;98.60
56761;DHT22;42633;44.494;11.356;2023-02-07T01:59:05;2.90;98.70
56761;DHT22;42633;44.494;11.356;2023-02-07T02:02:12;2.90;98.80
56761;DHT22;42633;44.494;11.356;2023-02-07T02:05:19;2.90;98.80
56761;DHT22;42633;44.494;11.356;2023-02-07T02:08:27;2.90;98.90
56761;DHT22;42633;44.494;11.356;2023-02-07T02:28:53;2.50;99.40
56761;DHT22;42633;44.494;11.356;2023-02-07T02:36:15;2.50;99.90
56761;DHT22;42633;44.494;11.356;2023-02-07T02:42:30;2.60;99.90
56761;DHT22;42633;44.494;11.356;2023-02-07T02:45:48;2.60;99.90
56761;DHT22;42633;44.494;11.356;2023-02-07T02:48:55;2.60;99.90
56761;DHT22;42633;44.494;11.356;2023-02-07T02:52:04;2.60;99.90
56761;DHT22;42633;44.494;11.356;2023-02-07T02:55:08;2.70;99.90
56761;DHT22;42633;44.494;11.356;2023-02-07T03:08:24;2.60;99.90
56761;DHT22;42633;44.494;11.356;2023-02-07T03:11:38;2.60;99.90
56761;DHT22;42633;44.494;11.356;2023-02-07T03:15:14;2.70;99.90
56761;DHT22;42633;44.494;11.356;2023-02-07T03:18:27;2.60;99.90
56761;DHT22;42633;44.494;11.356;2023-02-07T03:21:41;2.60;99.90
56761;DHT22;42633;44.494;11.356;2023-02-07T03:24:50;2.60;99.90
56761;DHT22;42633;44.494;11.356;2023-02-07T03:27:55;2.60;99.90
56761;DHT22;42633;44.494;11.356;2023-02-07T03:31:00;2.50;99.90
56761;DHT22;42633;44.494;11.356;2023-02-07T03:34:14;2.40;99.90
56761;DHT22;42633;44.494;11.356;2023-02-07T03:37:34;2.40;99.90
56761;DHT22;42633;44.494;11.356;2023-02-07T03:40:43;2.40;99.90
56761;DHT22;42633;44.494;11.356;2023-02-07T03:43:48;2.40;99.90
56761;DHT22;42633;44.494;11.356;2023-02-07T03:46:53;2.30;99.90
56761;DHT22;42633;44.494;11.356;2023-02-07T03:49:58;2.30;99.90
56761;DHT22;42633;44.494;11.356;2023-02-07T03:53:02;2.20;99.90
56761;DHT22;42633;44.494;11.356;2023-02-07T03:56:06;2.20;99.90
56761;DHT22;42633;44.494;11.356;2023-02-07T03:59:10;2.10;99.90
56761;DHT22;42633;44.494;11.356;2023-02-07T04:02:15;2.20;99.90
56761;DHT22;42633;44.494;11.356;2023-02-07T04:05:19;2.20;99.90
56761;DHT22;42633;44.494;11.356;2023-02-07T04:08:23;2.20;99.90
56761;DHT22;42633;44.494;11.356;2023-02-07T04:11:27;2.30;99.90
56761;DHT22;42633;44.494;11.356;2023-02-07T04:14:31;2.40;99.90
56761;DHT22;42633;44.494;11.356;2023-02-07T04:17:35;2.40;99.90
56761;DHT22;42633;44.494;11.356;2023-02-07T04:20:40;2.40;99.90
56761;DHT22;42633;44.494;11.356;2023-02-07T04:23:44;2.40;99.90
56761;DHT22;42633;44.494;11.356;2023-02-07T04:26:49;2.30;99.90
56761;DHT22;42633;44.494;11.356;2023-02-07T04:29:53;2.30;99.90
56761;DHT22;42633;44.494;11.356;2023-02-07T04:32:58;2.20;99.90
56761;DHT22;42633;44.494;11.356;2023-02-07T04:36:02;2.20;99.90
56761;DHT22;42633;44.494;11.356;2023-02-07T04:39:06;2.10;99.90
56761;DHT22;42633;44.494;11.356;2023-02-07T04:42:10;2.10;99.90
56761;DHT22;42633;44.494;11.356;2023-02-07T04:45:14;2.10;99.90
56761;DHT22;42633;44.494;11.356;2023-02-07T04:48:19;2.00;99.90
56761;DHT22;42633;44.494;11.356;2023-02-07T04:51:23;2.00;99.90
56761;DHT22;42633;44.494;11.356;2023-02-07T04:54:45;1.90;99.90
56761;DHT22;42633;44.494;11.356;2023-02-07T04:57:49;1.90;99.90
56761;DHT22;42633;44.494;11.356;2023-02-07T05:00:54;1.90;99.90
56761;DHT22;42633;44.494;11.356;2023-02-07T05:03:59;1.90;99.90
56761;DHT22;42633;44.494;11.356;2023-02-07T05:07:06;1.90;99.90
56761;DHT22;42633;44.494;11.356;2023-02-07T05:10:10;1.90;99.90
56761;DHT22;42633;44.494;11.356;2023-02-07T05:13:14;1.90;99.90
56761;DHT22;42633;44.494;11.356;2023-02-07T05:16:18;1.80;99.90
56761;DHT22;42633;44.494;11.356;2023-02-07T05:19:22;1.80;99.90
56761;DHT22;42633;44.494;11.356;2023-02-07T05:22:27;1.80;99.90
56761;DHT22;42633;44.494;11.356;2023-02-07T05:25:31;1.70;99.90
56761;DHT22;42633;44.494;11.356;2023-02-07T05:28:35;1.70;99.90
56761;DHT22;42633;44.494;11.356;2023-02-07T05:31:39;1.70;99.90
56761;DHT22;42633;44.494;11.356;2023-02-07T05:35:01;1.60;99.90
56761;DHT22;42633;44.494;11.356;2023-02-07T05:38:08;1.70;99.90
56761;DHT22;42633;44.494;11.356;2023-02-07T05:41:13;1.70;99.90
56761;DHT22;42633;44.494;11.356;2023-02-07T05:44:17;1.70;99.90
56761;DHT22;42633;44.494;11.356;2023-02-07T05:47:21;1.60;99.90
56761;DHT22;42633;44.494;11.356;2023-02-07T05:50:26;1.60;99.90
56761;DHT22;42633;44.494;11.356;2023-02-07T05:53:41;1.60;99.90
56761;DHT22;42633;44.494;11.356;2023-02-07T05:56:45;1.50;99.90
56761;DHT22;42633;44.494;11.356;2023-02-07T05:59:50;1.40;99.90
56761;DHT22;42633;44.494;11.356;2023-02-07T06:02:54;1.40;99.90
56761;DHT22;42633;44.494;11.356;2023-02-07T06:05:59;1.40;99.90
56761;DHT22;42633;44.494;11.356;2023-02-07T06:09:03;1.30;99.90
56761;DHT22;42633;44.494;11.356;2023-02-07T06:12:07;1.30;99.90
56761;DHT22;42633;44.494;11.356;2023-02-07T06:15:11;1.30;99.90
56761;DHT22;42633;44.494;11.356;2023-02-07T06:18:15;1.30;99.90
56761;DHT22;42633;44.494;11.356;2023-02-07T06:21:20;1.40;99.90
56761;DHT22;42633;44.494;11.356;2023-02-07T06:24:24;1.40;99.90
56761;DHT22;42633;44.494;11.356;2023-02-07T06:27:28;1.40;99.90
56761;DHT22;42633;44.494;11.356;2023-02-07T06:30:31;1.40;99.90
56761;DHT22;42633;44.494;11.356;2023-02-07T06:33:36;1.30;99.90
56761;DHT22;42633;44.494;11.356;2023-02-07T06:36:40;1.30;99.90
56761;DHT22;42633;44.494;11.356;2023-02-07T06:39:44;1.30;99.90
56761;DHT22;42633;44.494;11.356;2023-02-07T06:42:48;1.30;99.90
56761;DHT22;42633;44.494;11.356;2023-02-07T06:45:52;1.30;99.90
56761;DHT22;42633;44.494;11.356;2023-02-07T06:48:56;1.20;99.90
56761;DHT22;42633;44.494;11.356;2023-02-07T06:52:01;1.20;99.90
56761;DHT22;42633;44.494;11.356;2023-02-07T06:55:05;1.20;99.90
56761;DHT22;42633;44.494;11.356;2023-02-07T06:58:09;1.20;99.90
56761;DHT22;42633;44.494;11.356;2023-02-07T07:01:13;1.20;99.90
56761;DHT22;42633;44.494;11.356;2023-02-07T07:04:22;1.30;99.90
56761;DHT22;42633;44.494;11.356;2023-02-07T07:07:26;1.40;99.90
56761;DHT22;42633;44.494;11.356;2023-02-07T07:10:30;1.40;99.90
56761;DHT22;42633;44.494;11.356;2023-02-07T07:13:35;1.50;99.90
56761;DHT22;42633;44.494;11.356;2023-02-07T07:16:39;1.40;99.90
56761;DHT22;42633;44.494;11.356;2023-02-07T07:19:45;1.40;99.90
56761;DHT22;42633;44.494;11.356;2023-02-07T07:22:49;1.30;99.90
56761;DHT22;42633;44.494;11.356;2023-02-07T07:25:53;1.20;99.90
56761;DHT22;42633;44.494;11.356;2023-02-07T07:28:57;1.30;99.90
56761;DHT22;42633;44.494;11.356;2023-02-07T07:32:02;1.30;99.90
56761;DHT22;42633;44.494;11.356;2023-02-07T07:35:06;1.30;99.90
56761;DHT22;42633;44.494;11.356;2023-02-07T07:38:11;1.40;99.90
56761;DHT22;42633;44.494;11.356;2023-02-07T07:41:15;1.50;99.90
56761;DHT22;42633;44.494;11.356;2023-02-07T07:44:30;1.60;99.90
56761;DHT22;42633;44.494;11.356;2023-02-07T07:47:36;1.70;99.90
56761;DHT22;42633;44.494;11.356;2023-02-07T07:50:41;1.80;99.90
56761;DHT22;42633;44.494;11.356;2023-02-07T07:53:45;1.80;99.90
56761;DHT22;42633;44.494;11.356;2023-02-07T07:56:49;1.80;99.90
56761;DHT22;42633;44.494;11.356;2023-02-07T07:59:54;1.90;99.90
56761;DHT22;42633;44.494;11.356;2023-02-07T08:02:58;2.00;99.90
56761;DHT22;42633;44.494;11.356;2023-02-07T08:06:02;2.00;99.90
56761;DHT22;42633;44.494;11.356;2023-02-07T08:09:06;2.10;99.90
56761;DHT22;42633;44.494;11.356;2023-02-07T08:12:10;2.30;99.90
56761;DHT22;42633;44.494;11.356;2023-02-07T08:15:14;2.60;99.50
56761;DHT22;42633;44.494;11.356;2023-02-07T08:18:18;2.80;99.20
56761;DHT22;42633;44.494;11.356;2023-02-07T08:21:22;2.90;98.90
56761;DHT22;42633;44.494;11.356;2023-02-07T08:24:28;3.10;98.50
56761;DHT22;42633;44.494;11.356;2023-02-07T08:27:32;3.20;98.20
56761;DHT22;42633;44.494;11.356;2023-02-07T08:30:36;3.40;97.50
56761;DHT22;42633;44.494;11.356;2023-02-07T08:33:40;3.50;97.30
56761;DHT22;42633;44.494;11.356;2023-02-07T08:36:44;3.50;97.20
56761;DHT22;42633;44.494;11.356;2023-02-07T08:39:48;3.60;97.20
56761;DHT22;42633;44.494;11.356;2023-02-07T08:42:55;3.80;97.10
56761;DHT22;42633;44.494;11.356;2023-02-07T08:45:59;4.00;96.70
56761;DHT22;42633;44.494;11.356;2023-02-07T08:49:03;4.10;96.30
56761;DHT22;42633;44.494;11.356;2023-02-07T08:52:07;4.10;96.10
56761;DHT22;42633;44.494;11.356;2023-02-07T08:55:12;4.30;96.10
56761;DHT22;42633;44.494;11.356;2023-02-07T08:58:16;4.50;95.40
56761;DHT22;42633;44.494;11.356;2023-02-07T09:01:20;4.70;95.30
56761;DHT22;42633;44.494;11.356;2023-02-07T09:04:24;5.20;95.00
56761;DHT22;42633;44.494;11.356;2023-02-07T09:07:30;5.90;93.50
56761;DHT22;42633;44.494;11.356;2023-02-07T09:10:36;6.40;92.50
56761;DHT22;42633;44.494;11.356;2023-02-07T09:14:20;6.60;91.80
56761;DHT22;42633;44.494;11.356;2023-02-07T09:17:38;6.60;91.50
56761;DHT22;42633;44.494;11.356;2023-02-07T09:20:44;6.40;91.70
56761;DHT22;42633;44.494;11.356;2023-02-07T09:23:49;6.30;92.00
56761;DHT22;42633;44.494;11.356;2023-02-07T09:26:54;6.30;91.70
56761;DHT22;42633;44.494;11.356;2023-02-07T09:29:58;6.30;91.90
56761;DHT22;42633;44.494;11.356;2023-02-07T09:33:03;6.40;93.00
56761;DHT22;42633;44.494;11.356;2023-02-07T09:36:23;6.60;92.40
56761;DHT22;42633;44.494;11.356;2023-02-07T09:39:28;6.90;92.40
56761;DHT22;42633;44.494;11.356;2023-02-07T09:42:56;7.20;91.70
56761;DHT22;42633;44.494;11.356;2023-02-07T09:46:06;7.10;90.80
56761;DHT22;42633;44.494;11.356;2023-02-07T09:52:24;6.80;91.30
56761;DHT22;42633;44.494;11.356;2023-02-07T09:58:49;7.00;91.40
56761;DHT22;42633;44.494;11.356;2023-02-07T10:02:00;7.30;91.20
56761;DHT22;42633;44.494;11.356;2023-02-07T10:05:20;7.10;90.30
56761;DHT22;42633;44.494;11.356;2023-02-07T10:08:25;6.80;90.60
56761;DHT22;42633;44.494;11.356;2023-02-07T10:18:46;7.40;90.40
56761;DHT22;42633;44.494;11.356;2023-02-07T10:25:30;8.20;87.80
56761;DHT22;42633;44.494;11.356;2023-02-07T10:28:54;7.90;86.40
56761;DHT22;42633;44.494;11.356;2023-02-07T10:32:21;7.40;86.20
56761;DHT22;42633;44.494;11.356;2023-02-07T10:35:32;7.40;87.80
56761;DHT22;42633;44.494;11.356;2023-02-07T10:41:59;7.80;85.20
56761;DHT22;42633;44.494;11.356;2023-02-07T10:45:04;7.70;85.60
56761;DHT22;42633;44.494;11.356;2023-02-07T10:48:13;7.70;85.90
56761;DHT22;42633;44.494;11.356;2023-02-07T10:54:52;8.20;86.10
56761;DHT22;42633;44.494;11.356;2023-02-07T10:57:57;8.30;84.20
56761;DHT22;42633;44.494;11.356;2023-02-07T11:01:02;8.00;84.40
56761;DHT22;42633;44.494;11.356;2023-02-07T11:04:52;7.90;86.50
56761;DHT22;42633;44.494;11.356;2023-02-07T11:11:29;8.30;83.80
56761;DHT22;42633;44.494;11.356;2023-02-07T11:14:35;8.20;83.90
56761;DHT22;42633;44.494;11.356;2023-02-07T11:17:38;8.00;84.50
56761;DHT22;42633;44.494;11.356;2023-02-07T11:20:52;8.40;86.90
56761;DHT22;42633;44.494;11.356;2023-02-07T11:24:04;8.50;84.30
56761;DHT22;42633;44.494;11.356;2023-02-07T11:30:18;8.60;83.70
56761;DHT22;42633;44.494;11.356;2023-02-07T11:33:27;8.80;82.70
56761;DHT22;42633;44.494;11.356;2023-02-07T11:36:32;8.80;81.40
56761;DHT22;42633;44.494;11.356;2023-02-07T11:39:37;8.70;80.70
56761;DHT22;42633;44.494;11.356;2023-02-07T11:42:41;8.80;81.50
56761;DHT22;42633;44.494;11.356;2023-02-07T11:45:48;8.60;77.90
56761;DHT22;42633;44.494;11.356;2023-02-07T11:48:55;8.20;78.50
56761;DHT22;42633;44.494;11.356;2023-02-07T11:52:01;8.20;80.10
56761;DHT22;42633;44.494;11.356;2023-02-07T11:55:08;8.10;78.80
56761;DHT22;42633;44.494;11.356;2023-02-07T11:58:36;8.20;78.50
56761;DHT22;42633;44.494;11.356;2023-02-07T12:01:42;8.20;77.40
56761;DHT22;42633;44.494;11.356;2023-02-07T12:04:52;8.10;80.40
56761;DHT22;42633;44.494;11.356;2023-02-07T12:08:16;8.30;78.90
56761;DHT22;42633;44.494;11.356;2023-02-07T12:11:27;9.10;76.30
56761;DHT22;42633;44.494;11.356;2023-02-07T12:14:53;9.30;75.00
56761;DHT22;42633;44.494;11.356;2023-02-07T12:21:19;8.90;77.80
56761;DHT22;42633;44.494;11.356;2023-02-07T12:25:08;9.10;73.80
56761;DHT22;42633;44.494;11.356;2023-02-07T12:28:37;8.70;73.50
56761;DHT22;42633;44.494;11.356;2023-02-07T12:32:00;8.30;71.70
56761;DHT22;42633;44.494;11.356;2023-02-07T12:35:30;8.20;73.70
56761;DHT22;42633;44.494;11.356;2023-02-07T12:38:51;8.30;75.40
56761;DHT22;42633;44.494;11.356;2023-02-07T12:42:19;8.70;73.70
56761;DHT22;42633;44.494;11.356;2023-02-07T12:56:11;9.20;72.30
56761;DHT22;42633;44.494;11.356;2023-02-07T12:59:30;9.50;71.00
56761;DHT22;42633;44.494;11.356;2023-02-07T13:09:39;9.10;71.00
56761;DHT22;42633;44.494;11.356;2023-02-07T13:12:49;9.20;69.50
56761;DHT22;42633;44.494;11.356;2023-02-07T13:19:30;9.40;68.90
56761;DHT22;42633;44.494;11.356;2023-02-07T13:22:57;9.40;68.20
56761;DHT22;42633;44.494;11.356;2023-02-07T13:26:20;9.40;68.20
56761;DHT22;42633;44.494;11.356;2023-02-07T13:29:29;9.30;68.90
56761;DHT22;42633;44.494;11.356;2023-02-07T13:32:34;9.30;68.60
56761;DHT22;42633;44.494;11.356;2023-02-07T13:35:38;9.20;68.70
56761;DHT22;42633;44.494;11.356;2023-02-07T13:42:50;8.30;68.50
56761;DHT22;42633;44.494;11.356;2023-02-07T13:49:47;8.60;68.00
56761;DHT22;42633;44.494;11.356;2023-02-07T13:53:02;8.50;68.40
56761;DHT22;42633;44.494;11.356;2023-02-07T13:56:13;8.70;69.00
56761;DHT22;42633;44.494;11.356;2023-02-07T13:59:37;8.90;68.00
56761;DHT22;42633;44.494;11.356;2023-02-07T14:02:48;9.00;67.60
56761;DHT22;42633;44.494;11.356;2023-02-07T14:06:22;8.70;68.60
56761;DHT22;42633;44.494;11.356;2023-02-07T14:12:37;8.70;69.20
56761;DHT22;42633;44.494;11.356;2023-02-07T14:18:51;8.90;69.10
56761;DHT22;42633;44.494;11.356;2023-02-07T14:22:17;9.10;68.10
56761;DHT22;42633;44.494;11.356;2023-02-07T14:28:34;8.80;67.60
56761;DHT22;42633;44.494;11.356;2023-02-07T14:31:47;8.90;66.10
56761;DHT22;42633;44.494;11.356;2023-02-07T14:38:25;8.70;64.80
56761;DHT22;42633;44.494;11.356;2023-02-07T14:41:34;8.70;65.20
56761;DHT22;42633;44.494;11.356;2023-02-07T14:44:40;8.50;66.00
56761;DHT22;42633;44.494;11.356;2023-02-07T14:47:47;8.50;65.30
56761;DHT22;42633;44.494;11.356;2023-02-07T14:50:52;8.30;66.10
56761;DHT22;42633;44.494;11.356;2023-02-07T14:57:48;8.00;65.20
56761;DHT22;42633;44.494;11.356;2023-02-07T15:00:56;8.00;65.80
56761;DHT22;42633;44.494;11.356;2023-02-07T15:04:03;8.10;66.10
56761;DHT22;42633;44.494;11.356;2023-02-07T15:07:11;8.00;66.10
56761;DHT22;42633;44.494;11.356;2023-02-07T15:10:24;7.90;64.70
56761;DHT22;42633;44.494;11.356;2023-02-07T15:16:39;7.80;64.60
56761;DHT22;42633;44.494;11.356;2023-02-07T15:19:44;7.80;65.30
56761;DHT22;42633;44.494;11.356;2023-02-07T15:22:49;7.90;65.10
56761;DHT22;42633;44.494;11.356;2023-02-07T15:25:56;7.80;65.10
56761;DHT22;42633;44.494;11.356;2023-02-07T15:29:06;7.70;65.80
56761;DHT22;42633;44.494;11.356;2023-02-07T15:32:31;7.70;65.90
56761;DHT22;42633;44.494;11.356;2023-02-07T15:35:37;7.50;64.80
56761;DHT22;42633;44.494;11.356;2023-02-07T15:38:42;7.30;65.00
56761;DHT22;42633;44.494;11.356;2023-02-07T15:41:52;7.20;66.10
56761;DHT22;42633;44.494;11.356;2023-02-07T15:44:57;7.20;66.40
56761;DHT22;42633;44.494;11.356;2023-02-07T15:48:04;7.00;66.10
56761;DHT22;42633;44.494;11.356;2023-02-07T15:51:13;6.90;66.00
56761;DHT22;42633;44.494;11.356;2023-02-07T15:54:18;6.80;68.00
56761;DHT22;42633;44.494;11.356;2023-02-07T15:57:39;6.80;67.90
56761;DHT22;42633;44.494;11.356;2023-02-07T16:00:44;6.90;66.50
56761;DHT22;42633;44.494;11.356;2023-02-07T16:03:48;6.80;66.30
56761;DHT22;42633;44.494;11.356;2023-02-07T16:07:18;6.70;66.50
56761;DHT22;42633;44.494;11.356;2023-02-07T16:13:32;6.80;67.90
56761;DHT22;42633;44.494;11.356;2023-02-07T16:16:39;6.70;66.30
56761;DHT22;42633;44.494;11.356;2023-02-07T16:19:44;6.70;67.50
56761;DHT22;42633;44.494;11.356;2023-02-07T16:22:50;6.60;67.60
56761;DHT22;42633;44.494;11.356;2023-02-07T16:25:54;6.60;68.30
56761;DHT22;42633;44.494;11.356;2023-02-07T16:29:04;6.70;67.90
56761;DHT22;42633;44.494;11.356;2023-02-07T16:32:10;6.70;68.30
56761;DHT22;42633;44.494;11.356;2023-02-07T16:35:23;6.70;68.80
56761;DHT22;42633;44.494;11.356;2023-02-07T16:38:27;6.70;69.20
56761;DHT22;42633;44.494;11.356;2023-02-07T16:41:33;6.70;68.80
56761;DHT22;42633;44.494;11.356;2023-02-07T16:44:39;6.70;69.00
56761;DHT22;42633;44.494;11.356;2023-02-07T16:47:43;6.70;69.20
56761;DHT22;42633;44.494;11.356;2023-02-07T16:50:47;6.70;68.80
56761;DHT22;42633;44.494;11.356;2023-02-07T16:53:51;6.70;69.50
56761;DHT22;42633;44.494;11.356;2023-02-07T16:56:57;6.70;68.40
56761;DHT22;42633;44.494;11.356;2023-02-07T17:00:05;6.60;68.80
56761;DHT22;42633;44.494;11.356;2023-02-07T17:03:13;6.60;69.70
56761;DHT22;42633;44.494;11.356;2023-02-07T17:06:20;6.60;69.00
56761;DHT22;42633;44.494;11.356;2023-02-07T17:09:24;6.50;69.00
56761;DHT22;42633;44.494;11.356;2023-02-07T17:12:28;6.50;69.50
56761;DHT22;42633;44.494;11.356;2023-02-07T17:15:32;6.50;69.20
56761;DHT22;42633;44.494;11.356;2023-02-07T17:18:37;6.40;69.40
56761;DHT22;42633;44.494;11.356;2023-02-07T17:21:41;6.40;70.50
56761;DHT22;42633;44.494;11.356;2023-02-07T17:24:45;6.40;70.10
56761;DHT22;42633;44.494;11.356;2023-02-07T17:27:50;6.50;70.10
56761;DHT22;42633;44.494;11.356;2023-02-07T17:30:54;6.50;70.20
56761;DHT22;42633;44.494;11.356;2023-02-07T17:33:59;6.60;69.80
56761;DHT22;42633;44.494;11.356;2023-02-07T17:37:03;6.50;70.40
56761;DHT22;42633;44.494;11.356;2023-02-07T17:40:27;6.50;70.10
56761;DHT22;42633;44.494;11.356;2023-02-07T17:43:31;6.40;69.90
56761;DHT22;42633;44.494;11.356;2023-02-07T17:46:35;6.40;69.80
56761;DHT22;42633;44.494;11.356;2023-02-07T17:49:39;6.30;70.90
56761;DHT22;42633;44.494;11.356;2023-02-07T17:52:43;6.40;70.20
56761;DHT22;42633;44.494;11.356;2023-02-07T17:55:49;6.30;70.50
56761;DHT22;42633;44.494;11.356;2023-02-07T17:58:55;6.30;71.00
56761;DHT22;42633;44.494;11.356;2023-02-07T18:01:59;6.30;70.20
56761;DHT22;42633;44.494;11.356;2023-02-07T18:05:06;6.30;70.80
56761;DHT22;42633;44.494;11.356;2023-02-07T18:08:12;6.30;70.80
56761;DHT22;42633;44.494;11.356;2023-02-07T18:11:16;6.20;71.20
56761;DHT22;42633;44.494;11.356;2023-02-07T18:14:20;6.30;71.00
56761;DHT22;42633;44.494;11.356;2023-02-07T18:17:26;6.30;74.50
56761;DHT22;42633;44.494;11.356;2023-02-07T18:20:31;6.30;75.10
56761;DHT22;42633;44.494;11.356;2023-02-07T18:23:36;6.20;74.90
56761;DHT22;42633;44.494;11.356;2023-02-07T18:26:40;6.20;74.60
56761;DHT22;42633;44.494;11.356;2023-02-07T18:29:44;6.00;75.80
56761;DHT22;42633;44.494;11.356;2023-02-07T18:32:48;6.00;76.60
56761;DHT22;42633;44.494;11.356;2023-02-07T18:35:56;5.90;76.00
56761;DHT22;42633;44.494;11.356;2023-02-07T18:39:01;5.80;75.60
56761;DHT22;42633;44.494;11.356;2023-02-07T18:42:05;5.80;76.00
56761;DHT22;42633;44.494;11.356;2023-02-07T18:45:09;5.80;77.20
56761;DHT22;42633;44.494;11.356;2023-02-07T18:48:13;5.80;76.30
56761;DHT22;42633;44.494;11.356;2023-02-07T18:51:17;5.80;76.10
56761;DHT22;42633;44.494;11.356;2023-02-07T18:54:22;5.70;76.60
56761;DHT22;42633;44.494;11.356;2023-02-07T18:57:27;5.70;75.60
56761;DHT22;42633;44.494;11.356;2023-02-07T19:00:31;5.60;75.40
56761;DHT22;42633;44.494;11.356;2023-02-07T19:03:36;5.50;75.40
56761;DHT22;42633;44.494;11.356;2023-02-07T19:06:41;5.50;75.40
56761;DHT22;42633;44.494;11.356;2023-02-07T19:09:45;5.40;75.90
56761;DHT22;42633;44.494;11.356;2023-02-07T19:12:49;5.40;76.60
56761;DHT22;42633;44.494;11.356;2023-02-07T19:16:00;5.40;76.50
56761;DHT22;42633;44.494;11.356;2023-02-07T19:19:04;5.40;76.90
56761;DHT22;42633;44.494;11.356;2023-02-07T19:22:08;5.30;77.50
56761;DHT22;42633;44.494;11.356;2023-02-07T19:25:12;5.20;77.50
56761;DHT22;42633;44.494;11.356;2023-02-07T19:28:16;5.20;77.90
56761;DHT22;42633;44.494;11.356;2023-02-07T19:31:20;5.20;78.10
56761;DHT22;42633;44.494;11.356;2023-02-07T19:34:25;5.10;78.60
56761;DHT22;42633;44.494;11.356;2023-02-07T19:37:29;5.00;79.10
56761;DHT22;42633;44.494;11.356;2023-02-07T19:40:33;5.00;79.10
56761;DHT22;42633;44.494;11.356;2023-02-07T19:43:37;4.90;79.30
56761;DHT22;42633;44.494;11.356;2023-02-07T19:46:41;4.90;80.00
56761;DHT22;42633;44.494;11.356;2023-02-07T19:49:47;4.80;79.30
56761;DHT22;42633;44.494;11.356;2023-02-07T19:52:54;4.90;80.00
56761;DHT22;42633;44.494;11.356;2023-02-07T19:56:03;4.80;80.00
56761;DHT22;42633;44.494;11.356;2023-02-07T19:59:07;4.80;80.90
56761;DHT22;42633;44.494;11.356;2023-02-07T20:02:12;4.70;81.00
56761;DHT22;42633;44.494;11.356;2023-02-07T20:05:16;4.60;81.10
56761;DHT22;42633;44.494;11.356;2023-02-07T20:08:20;4.60;81.10
56761;DHT22;42633;44.494;11.356;2023-02-07T20:11:25;4.60;80.70
56761;DHT22;42633;44.494;11.356;2023-02-07T20:14:30;4.60;81.80
56761;DHT22;42633;44.494;11.356;2023-02-07T20:17:35;4.50;81.90
56761;DHT22;42633;44.494;11.356;2023-02-07T20:20:44;4.50;81.90
56761;DHT22;42633;44.494;11.356;2023-02-07T20:23:49;4.60;81.70
56761;DHT22;42633;44.494;11.356;2023-02-07T20:26:54;4.60;81.10
56761;DHT22;42633;44.494;11.356;2023-02-07T20:29:58;4.70;81.00
56761;DHT22;42633;44.494;11.356;2023-02-07T20:33:02;4.80;80.70
56761;DHT22;42633;44.494;11.356;2023-02-07T20:36:07;4.80;80.90
56761;DHT22;42633;44.494;11.356;2023-02-07T20:39:14;4.80;81.00
56761;DHT22;42633;44.494;11.356;2023-02-07T20:42:18;4.80;81.10
56761;DHT22;42633;44.494;11.356;2023-02-07T20:45:25;4.80;80.80
56761;DHT22;42633;44.494;11.356;2023-02-07T20:48:34;4.80;80.80
56761;DHT22;42633;44.494;11.356;2023-02-07T20:51:40;4.80;81.20
56761;DHT22;42633;44.494;11.356;2023-02-07T20:54:47;4.80;80.80
56761;DHT22;42633;44.494;11.356;2023-02-07T20:57:51;4.70;81.70
56761;DHT22;42633;44.494;11.356;2023-02-07T21:00:56;4.70;81.40
56761;DHT22;42633;44.494;11.356;2023-02-07T21:04:03;4.80;81.40
56761;DHT22;42633;44.494;11.356;2023-02-07T21:07:09;4.70;81.40
56761;DHT22;42633;44.494;11.356;2023-02-07T21:10:13;4.80;81.70
56761;DHT22;42633;44.494;11.356;2023-02-07T21:13:17;4.80;81.60
56761;DHT22;42633;44.494;11.356;2023-02-07T21:16:21;4.80;81.70
56761;DHT22;42633;44.494;11.356;2023-02-07T21:19:27;4.70;81.40
56761;DHT22;42633;44.494;11.356;2023-02-07T21:22:32;4.80;81.50
56761;DHT22;42633;44.494;11.356;2023-02-07T21:25:36;4.70;81.30
56761;DHT22;42633;44.494;11.356;2023-02-07T21:28:40;4.70;80.50
56761;DHT22;42633;44.494;11.356;2023-02-07T21:31:46;4.80;80.20
56761;DHT22;42633;44.494;11.356;2023-02-07T21:34:50;4.70;79.60
56761;DHT22;42633;44.494;11.356;2023-02-07T21:37:54;4.60;79.80
56761;DHT22;42633;44.494;11.356;2023-02-07T21:40:59;4.60;79.80
56761;DHT22;42633;44.494;11.356;2023-02-07T21:44:04;4.60;79.70